Terminal Aerodrome Forecast
Issued by NWS

Home | Current Version | Previous Version | Text Only | Print | Product List | Glossary On
Versions: 1 2 3 4 5 6 7 8 9 10 11 12 13 14
000
FTUS45 KRIW 101721
TAFPNA
TAF
KPNA 101721Z 1018/1118 VRB05KT 6SM -SN SCT015 OVC035
     FM102200 30006KT 2SM -SN OVC020
     FM110100 30008KT 5SM -SN OVC025
     FM110600 30007KT P6SM VCSH OVC035
     FM111700 30009KT P6SM BKN080
      AMD LTD TO CLD VIS AND WIND=

USA.gov is the U.S. government's official web portal to all federal, state and local government web resources and services.